富山空港の過去48時間の天気

富山空港 (Toyama)

現在時刻: 9/25 16:22 JST (9/25 07:22 UTC) 以下の時間は現地時間です。

過去48時間のMETAR気象情報
時間 風向 風速(m/s) 視程 気温(℃) 湿度(%) 気圧(hPa) 天気現象
25 16:00 南南西 3 5000m 20 100 1004 雨 もや
25 15:27 南南西 2 4000m 21 94 1004 雨 もや
25 15:00 不定 1 5000m 21 94 1004 雨 もや
25 14:00 西 2 6000m 21 94 1004 弱い雨
25 13:00 北北西 2 8000m 21 94 1005 弱い雨
25 12:00 北東 2 8000m 20 100 1005 弱い雨
25 11:00 北北東 2 5000m 21 94 1006 雨 もや
25 10:21 不定 1 5000m 21 94 1006 雨 もや
25 10:00 2 5000m 21 94 1006 弱い雨 もや
25 09:46 南南西 2 5000m 21 94 1007 雨 もや
25 09:30 南西 2 7000m 21 94 1007 弱い雨
25 09:11 不定 1 5000m 21 94 1007 雨 もや
25 09:00 不定 1 5000m 21 94 1007 弱い雨 もや
25 08:00 南西 2 5000m 21 94 1008 弱い雨 もや
25 07:00 南西 1 7000m 21 94 1008 弱い雨
25 06:10 南西 1 8000m 21 94 1008 弱い雨
24 21:00 西南西 1 10km以上 23 89 1009 弱いしゅう雨
24 20:00 2 10km以上 23 94 1009 弱いしゅう雨
24 19:00 西南西 2 10km以上 23 94 1009 弱いしゅう雨
24 18:00 南西 2 10km以上 24 83 1009
24 17:00 西 2 10km以上 24 89 1009 弱いしゅう雨
24 16:00 3 10km以上 26 74 1009 弱いしゅう雨
24 15:00 3 10km以上 26 74 1009 弱いしゅう雨
24 14:00 4 10km以上 27 70 1009 周辺でしゅう雨
24 13:00 3 10km以上 28 62 1009
24 12:00 4 10km以上 28 62 1008
24 11:00 北北西 2 10km以上 27 66 1009
24 10:00 不定 1 10km以上 25 69 1010 周辺でしゅう雨
24 09:00 不定 1 10km以上 24 69 1010
24 08:00 南西 2 10km以上 23 73 1011
24 07:00 不定 1 10km以上 22 78 1011
24 06:10 南西 2 10km以上 20 88 1010
RJNT 250700Z 20005KT 5000 RA BR FEW002 SCT007 BKN010 20/20 Q1004
RJNT 250627Z 20004KT 150V230 4000 RA BR FEW002 BKN007 BKN010 21/20 Q1004 RMK 1ST002 5ST007 7SC010 A2966
RJNT 250600Z VRB02KT 5000 RA BR FEW002 BKN010 BKN035 21/20 Q1004
RJNT 250500Z 27003KT 240V300 6000 -RA FEW002 SCT020 BKN035 21/20 Q1004
RJNT 250400Z 34004KT 8000 -RA FEW002 SCT010 BKN030 21/20 Q1005
RJNT 250300Z 04003KT 360V080 8000 -RA FEW002 SCT015 BKN020 20/20 Q1005
RJNT 250200Z 03004KT 5000 RA BR FEW001 SCT005 BKN010 21/20 Q1006
RJNT 250121Z VRB02KT 5000 RA BR FEW001 SCT015 BKN020 21/20 Q1006 RMK 1ST001 3SC015 5SC020 A2973
RJNT 250100Z 19003KT 120V220 5000 -RA BR FEW001 SCT015 BKN020 21/20 Q1006
RJNT 250046Z 20004KT 5000 RA BR FEW001 SCT015 BKN020 21/20 Q1007 RMK 1ST001 3SC015 5SC020 A2974
RJNT 250030Z 22003KT 7000 -RA FEW001 SCT009 BKN015 21/20 Q1007 RMK 1ST001 3ST009 5SC015 A2974
RJNT 250011Z VRB01KT 5000 RA BR FEW001 BKN010 BKN015 21/20 Q1007 RMK 1ST001 5ST010 6SC015 A2974
RJNT 250000Z VRB02KT 5000 -RA BR FEW001 BKN010 BKN015 21/20 Q1007
RJNT 242300Z 22004KT 5000 -RA BR FEW001 BKN010 OVC100 21/20 Q1008
RJNT 242200Z 23002KT 7000 -RA FEW002 SCT020 BKN100 21/20 Q1008
RJNT 242110Z 22002KT 8000 -RA FEW002 SCT017 BKN100 21/20 Q1008 RMK 1ST002 3SC017 7AS100 A2977
RJNT 241200Z 24002KT 9999 -SHRA FEW020 BKN090 BKN110 23/21 Q1009
RJNT 241100Z 19004KT 9999 -SHRA FEW020 SCT070 BKN090 23/22 Q1009
RJNT 241000Z 24003KT 9999 -SHRA FEW020 SCT050 BKN070 23/22 Q1009
RJNT 240900Z 22003KT 190V250 9999 FEW020 SCT100 BKN130 24/21 Q1009
RJNT 240800Z 28003KT 250V320 9999 -SHRA FEW010 FEW020TCU SCT050 BKN100 24/22 Q1009
RJNT 240700Z 35006KT 9999 -SHRA FEW010 FEW020TCU SCT050 BKN110 26/21 Q1009
RJNT 240600Z 01005KT 340V060 9999 -SHRA FEW015 FEW020CB BKN030 BKN050 26/21 Q1009
RJNT 240500Z 01008KT 9999 VCSH FEW030 SCT050 BKN140 27/21 Q1009
RJNT 240400Z VRB05KT 9999 FEW035 SCT040 BKN140 28/20 Q1009
RJNT 240300Z 36008KT 9999 FEW035 SCT200 BKN/// 28/20 Q1008
RJNT 240200Z 34003KT 270V030 9999 FEW030 SCT150 BKN200 27/20 Q1009
RJNT 240100Z VRB02KT 9999 VCSH FEW030 SCT150 BKN200 25/19 Q1010
RJNT 240000Z VRB02KT 9999 FEW030 SCT170 BKN210 24/18 Q1010
RJNT 232300Z 23004KT 9999 FEW040 BKN170 23/18 Q1011
RJNT 232200Z VRB02KT 9999 FEW040 BKN170 22/18 Q1011
RJNT 232110Z 22003KT 9999 FEW010 SCT150 BKN220 20/18 Q1010 RMK 1ST010 3AC150 6AC220 A2984